Aviation Digital Data Service (ADDS)

Output produced by METARs form (0735 UTC 16 January 2018)
found at http://www.aviationweather.gov/adds/metars/
 
KMKT 160715Z AUTO 31015KT 10SM -SN FEW007 OVC015 M21/M24 A3061 RMK AO2 P0000 FZRANO
KRST 160710Z AUTO 33017KT 9SM SCT024 OVC040 M17/M19 A3047 RMK AO2 T11721189
KMSP 160709Z 32008KT 10SM BKN030 M18/M20 A3059 RMK AO2 T11781200